Terminal Aerodrome Forecast
Issued by NWS

Home | Current Version | Previous Version | Text Only | Print | Product List | Glossary On
Versions: 1 2 3 4 5 6 7 8 9 10 11 12 13 14 15 16 17 18 19 20 21 22 23 24 25 26 27 28 29 30 31 32 33 34 35
000
FTUS43 KABR 210255 AAB
TAFMBG
TAF AMD
KMBG 210255Z 2103/2124 08016KT 5SM TSRA BKN050CB OVC100
      TEMPO 2103/2104 VRB35G55KT 2SM +TSRA OVC040CB
     FM210500 18009KT P6SM BKN120
     FM211300 16005KT P6SM SCT250
     FM211700 34007KT P6SM SCT150=

USA.gov is the U.S. government's official web portal to all federal, state and local government web resources and services.